Date,TemperatureHighF,TemperatureAvgF,TemperatureLowF,DewpointHighF,DewpointAvgF,DewpointLowF,HumidityHigh,HumidityAvg,HumidityLow,PressureMaxIn,PressureMinIn,WindSpeedMaxMPH,WindSpeedAvgMPH,GustSpeedMaxMPH,PrecipitationSumIn
2013-3-1,44.8,44.8,44.8,43.2,43.2,43.2,94,94,94,30.43,30.43,6,6,6,0.00
2013-3-2,45.0,42.0,40.5,40.2,38.6,37.8,91,88,83,30.40,30.23,8,3,12,0.00
2013-3-3,43.9,42.3,40.7,42.0,39.6,38.5,98,90,85,30.23,29.93,6,3,14,0.00
2013-3-4,46.5,44.2,42.6,45.7,43.0,39.5,100,96,88,29.92,29.66,6,3,17,0.05
2013-3-5,49.7,44.6,41.5,47.8,44.6,41.5,100,100,93,29.61,29.40,15,10,24,0.18
2013-3-6,50.8,49.0,47.5,50.8,49.0,47.5,100,100,100,29.40,29.28,9,7,16,0.09
2013-3-7,52.2,50.3,49.4,52.2,50.3,49.4,100,100,100,29.27,29.08,9,5,20,0.25
2013-3-8,53.7,51.0,49.7,53.7,51.0,49.7,100,100,100,29.30,29.06,10,5,17,0.05
2013-3-9,54.9,51.2,49.0,54.9,51.2,49.0,100,100,100,29.46,29.22,14,6,25,0.28
2013-3-10,50.3,44.7,37.5,50.3,44.7,37.5,100,100,100,29.73,29.45,20,14,31,1.30
2013-3-11,41.9,36.4,31.4,37.3,32.0,29.6,99,84,67,29.98,29.74,18,12,33,0.00
2013-3-12,45.3,36.2,28.0,36.3,30.9,26.2,94,82,57,30.05,30.00,12,6,27,0.00
2013-3-13,50.7,43.3,38.2,42.7,39.9,36.9,98,88,72,30.05,29.99,8,5,14,0.00
2013-3-14,51.2,42.1,32.1,47.4,40.5,32.1,100,95,80,30.11,29.81,12,4,18,0.00
2013-3-15,48.9,44.5,35.0,46.4,43.3,35.0,100,96,83,29.78,29.32,17,8,30,0.23
2013-3-16,49.6,40.3,31.6,44.7,38.7,31.6,100,94,73,29.35,29.18,8,2,14,0.02
2013-3-17,52.4,40.2,32.2,45.1,38.0,32.2,100,92,74,29.34,29.18,10,3,22,0.01
2013-3-18,50.7,40.4,30.6,43.3,37.4,30.6,100,90,66,29.39,29.15,8,3,14,0.01
2013-3-19,46.9,39.3,34.9,39.8,36.0,31.8,100,89,60,29.51,29.39,8,4,17,0.00
2013-3-20,46.0,38.9,30.5,40.3,35.5,30.5,100,88,70,29.76,29.52,11,3,21,0.00
2013-3-21,50.5,46.5,43.4,50.5,45.6,40.7,100,97,86,29.71,29.25,15,8,31,1.03
2013-3-22,52.5,49.6,47.1,52.5,49.6,46.8,100,100,97,29.46,29.13,21,7,32,0.09
2013-3-23,49.7,47.3,43.9,49.7,47.3,43.9,100,100,96,29.72,29.47,13,7,25,0.06
2013-3-24,43.8,41.6,39.7,43.8,40.7,38.4,100,97,93,29.89,29.72,13,8,19,0.00
2013-3-25,40.6,38.8,37.2,39.7,36.1,32.9,99,90,84,29.95,29.89,10,8,21,0.00
2013-3-26,39.2,35.3,32.1,38.0,34.0,30.8,100,95,82,29.97,29.92,13,7,21,0.13
2013-3-27,42.9,35.5,30.2,35.9,32.2,29.0,100,88,75,29.92,29.89,12,6,14,0.00
2013-3-28,41.7,36.6,30.9,36.7,33.4,29.4,100,89,77,29.92,29.72,9,5,20,0.02
2013-3-29,45.3,41.2,39.7,41.1,36.1,32.9,89,82,75,29.72,29.67,10,7,25,0.00
2013-3-30,43.5,40.3,39.5,35.3,34.9,33.9,83,81,72,29.85,29.73,8,6,17,0.00
2013-3-31,43.5,41.8,40.1,41.5,39.5,36.2,100,92,80,29.79,29.64,12,7,31,1.07